sensor_id;sensor_type;location;lat;lon;timestamp;pressure;altitude;pressure_sealevel;temperature;humidity
31092;BME280;67728;53.122;12.776;2023-08-24T00:00:46;100972.94;;;16.15;86.75
31092;BME280;67728;53.122;12.776;2023-08-24T00:02:17;100974.66;;;16.16;87.44
31092;BME280;67728;53.122;12.776;2023-08-24T00:03:50;100966.69;;;16.19;87.39
31092;BME280;67728;53.122;12.776;2023-08-24T00:05:20;100968.34;;;16.22;87.01
31092;BME280;67728;53.122;12.776;2023-08-24T00:06:52;100960.16;;;16.31;86.90
31092;BME280;67728;53.122;12.776;2023-08-24T00:08:24;100964.41;;;16.35;86.33
31092;BME280;67728;53.122;12.776;2023-08-24T00:09:54;100958.94;;;16.41;86.03
31092;BME280;67728;53.122;12.776;2023-08-24T00:11:26;100955.41;;;16.42;86.59
31092;BME280;67728;53.122;12.776;2023-08-24T00:12:56;100956.19;;;16.44;86.64
31092;BME280;67728;53.122;12.776;2023-08-24T00:14:28;100962.16;;;16.49;86.83
31092;BME280;67728;53.122;12.776;2023-08-24T00:15:59;100957.72;;;16.51;86.17
31092;BME280;67728;53.122;12.776;2023-08-24T00:17:30;100959.41;;;16.52;85.49
31092;BME280;67728;53.122;12.776;2023-08-24T00:19:02;100960.94;;;16.59;85.28
31092;BME280;67728;53.122;12.776;2023-08-24T00:20:34;100954.91;;;16.57;85.66
31092;BME280;67728;53.122;12.776;2023-08-24T00:22:05;100955.53;;;16.63;85.89
31092;BME280;67728;53.122;12.776;2023-08-24T00:23:36;100955.47;;;16.65;85.68
31092;BME280;67728;53.122;12.776;2023-08-24T00:25:08;100953.59;;;16.68;86.22
31092;BME280;67728;53.122;12.776;2023-08-24T00:26:40;100964.94;;;16.69;85.10
31092;BME280;67728;53.122;12.776;2023-08-24T00:28:11;100959.69;;;16.69;86.20
31092;BME280;67728;53.122;12.776;2023-08-24T00:29:43;100957.25;;;16.64;85.18
31092;BME280;67728;53.122;12.776;2023-08-24T00:31:15;100952.88;;;16.65;85.50
31092;BME280;67728;53.122;12.776;2023-08-24T00:32:47;100958.03;;;16.66;85.35
31092;BME280;67728;53.122;12.776;2023-08-24T00:34:19;100954.53;;;16.67;85.24
31092;BME280;67728;53.122;12.776;2023-08-24T00:35:51;100951.03;;;16.67;84.83
31092;BME280;67728;53.122;12.776;2023-08-24T00:37:21;100954.63;;;16.64;84.74
31092;BME280;67728;53.122;12.776;2023-08-24T00:38:53;100952.91;;;16.63;85.86
31092;BME280;67728;53.122;12.776;2023-08-24T00:40:23;100947.88;;;16.57;84.41
31092;BME280;67728;53.122;12.776;2023-08-24T00:41:55;100939.31;;;16.52;84.65
31092;BME280;67728;53.122;12.776;2023-08-24T00:43:26;100937.66;;;16.50;84.66
31092;BME280;67728;53.122;12.776;2023-08-24T00:44:57;100937.75;;;16.47;83.83
31092;BME280;67728;53.122;12.776;2023-08-24T00:46:28;100940.28;;;16.50;83.82
31092;BME280;67728;53.122;12.776;2023-08-24T00:48:01;100937.59;;;16.53;82.94
31092;BME280;67728;53.122;12.776;2023-08-24T00:49:34;100939.06;;;16.60;82.70
31092;BME280;67728;53.122;12.776;2023-08-24T00:51:06;100936.28;;;16.64;83.21
31092;BME280;67728;53.122;12.776;2023-08-24T00:52:40;100946.69;;;16.66;82.29
31092;BME280;67728;53.122;12.776;2023-08-24T00:54:11;100939.69;;;16.66;82.37
31092;BME280;67728;53.122;12.776;2023-08-24T00:55:43;100935.25;;;16.68;83.00
31092;BME280;67728;53.122;12.776;2023-08-24T00:57:14;100930.97;;;16.66;82.20
31092;BME280;67728;53.122;12.776;2023-08-24T00:58:46;100933.44;;;16.70;84.81
31092;BME280;67728;53.122;12.776;2023-08-24T01:00:17;100933.50;;;16.69;84.18
31092;BME280;67728;53.122;12.776;2023-08-24T01:01:50;100930.13;;;16.65;84.64
31092;BME280;67728;53.122;12.776;2023-08-24T01:03:23;100938.84;;;16.66;84.53
31092;BME280;67728;53.122;12.776;2023-08-24T01:04:55;100930.84;;;16.70;84.67
31092;BME280;67728;53.122;12.776;2023-08-24T01:06:27;100933.56;;;16.67;84.56
31092;BME280;67728;53.122;12.776;2023-08-24T01:07:58;100930.94;;;16.67;84.23
31092;BME280;67728;53.122;12.776;2023-08-24T01:09:30;100934.25;;;16.72;82.81
31092;BME280;67728;53.122;12.776;2023-08-24T01:11:07;100929.78;;;16.74;83.28
31092;BME280;67728;53.122;12.776;2023-08-24T01:12:47;100934.81;;;16.81;82.94
31092;BME280;67728;53.122;12.776;2023-08-24T01:14:25;100934.50;;;16.88;82.42
31092;BME280;67728;53.122;12.776;2023-08-24T01:16:04;100935.31;;;16.90;83.14
31092;BME280;67728;53.122;12.776;2023-08-24T01:17:38;100939.66;;;16.91;83.94
31092;BME280;67728;53.122;12.776;2023-08-24T01:19:21;100934.41;;;16.91;83.67
31092;BME280;67728;53.122;12.776;2023-08-24T01:20:55;100938.03;;;16.87;83.41
31092;BME280;67728;53.122;12.776;2023-08-24T01:22:36;100931.25;;;16.82;83.90
31092;BME280;67728;53.122;12.776;2023-08-24T01:24:14;100928.72;;;16.80;83.82
31092;BME280;67728;53.122;12.776;2023-08-24T01:25:51;100930.31;;;16.84;84.66
31092;BME280;67728;53.122;12.776;2023-08-24T01:27:25;100928.53;;;16.85;83.70
31092;BME280;67728;53.122;12.776;2023-08-24T01:28:58;100935.25;;;16.92;82.08
31092;BME280;67728;53.122;12.776;2023-08-24T01:30:29;100936.72;;;16.99;81.93
31092;BME280;67728;53.122;12.776;2023-08-24T01:32:02;100942.63;;;17.04;81.89
31092;BME280;67728;53.122;12.776;2023-08-24T01:33:33;100935.53;;;17.07;81.94
31092;BME280;67728;53.122;12.776;2023-08-24T01:35:07;100931.28;;;17.03;82.21
31092;BME280;67728;53.122;12.776;2023-08-24T01:36:38;100937.34;;;17.05;82.27
31092;BME280;67728;53.122;12.776;2023-08-24T01:38:09;100933.88;;;17.05;83.45
31092;BME280;67728;53.122;12.776;2023-08-24T01:39:47;100937.91;;;17.13;83.56
31092;BME280;67728;53.122;12.776;2023-08-24T01:41:24;100929.94;;;17.16;83.41
31092;BME280;67728;53.122;12.776;2023-08-24T01:43:02;100929.88;;;17.18;82.62
31092;BME280;67728;53.122;12.776;2023-08-24T01:44:35;100920.16;;;17.20;82.18
31092;BME280;67728;53.122;12.776;2023-08-24T01:46:11;100924.38;;;17.24;82.09
31092;BME280;67728;53.122;12.776;2023-08-24T01:47:42;100930.34;;;17.27;81.49
31092;BME280;67728;53.122;12.776;2023-08-24T01:49:17;100924.19;;;17.28;80.68
31092;BME280;67728;53.122;12.776;2023-08-24T01:50:49;100919.84;;;17.27;80.66
31092;BME280;67728;53.122;12.776;2023-08-24T01:52:21;100922.34;;;17.30;80.53
31092;BME280;67728;53.122;12.776;2023-08-24T01:53:53;100925.78;;;17.32;79.98
31092;BME280;67728;53.122;12.776;2023-08-24T01:55:25;100922.97;;;17.37;79.75
31092;BME280;67728;53.122;12.776;2023-08-24T01:56:56;100919.19;;;17.44;80.21
31092;BME280;67728;53.122;12.776;2023-08-24T01:58:29;100921.09;;;17.41;79.72
31092;BME280;67728;53.122;12.776;2023-08-24T02:00:00;100929.75;;;17.43;80.11
31092;BME280;67728;53.122;12.776;2023-08-24T02:01:31;100922.00;;;17.40;79.72
31092;BME280;67728;53.122;12.776;2023-08-24T02:03:03;100915.03;;;17.39;79.63
31092;BME280;67728;53.122;12.776;2023-08-24T02:04:34;100920.41;;;17.35;78.89
31092;BME280;67728;53.122;12.776;2023-08-24T02:06:06;100925.66;;;17.35;78.33
31092;BME280;67728;53.122;12.776;2023-08-24T02:07:39;100923.72;;;17.41;78.65
31092;BME280;67728;53.122;12.776;2023-08-24T02:09:10;100920.97;;;17.44;78.71
31092;BME280;67728;53.122;12.776;2023-08-24T02:10:41;100926.22;;;17.44;78.53
31092;BME280;67728;53.122;12.776;2023-08-24T02:12:12;100921.88;;;17.43;77.91
31092;BME280;67728;53.122;12.776;2023-08-24T02:13:44;100926.28;;;17.42;77.51
31092;BME280;67728;53.122;12.776;2023-08-24T02:15:16;100919.94;;;17.48;78.12
31092;BME280;67728;53.122;12.776;2023-08-24T02:16:48;100923.44;;;17.47;77.97
31092;BME280;67728;53.122;12.776;2023-08-24T02:18:18;100926.94;;;17.47;78.33
31092;BME280;67728;53.122;12.776;2023-08-24T02:19:50;100918.22;;;17.47;77.58
31092;BME280;67728;53.122;12.776;2023-08-24T02:21:21;100918.28;;;17.45;78.05
31092;BME280;67728;53.122;12.776;2023-08-24T02:22:53;100915.72;;;17.44;77.84
31092;BME280;67728;53.122;12.776;2023-08-24T02:24:23;100903.44;;;17.44;78.40
31092;BME280;67728;53.122;12.776;2023-08-24T02:25:56;100912.28;;;17.42;78.64
31092;BME280;67728;53.122;12.776;2023-08-24T02:27:26;100911.31;;;17.44;78.53
31092;BME280;67728;53.122;12.776;2023-08-24T02:29:00;100916.75;;;17.40;78.48
31092;BME280;67728;53.122;12.776;2023-08-24T02:30:30;100918.72;;;17.34;78.21
31092;BME280;67728;53.122;12.776;2023-08-24T02:32:02;100916.22;;;17.31;78.63
31092;BME280;67728;53.122;12.776;2023-08-24T02:33:33;100908.47;;;17.28;78.66
31092;BME280;67728;53.122;12.776;2023-08-24T02:35:06;100911.88;;;17.30;78.67
31092;BME280;67728;53.122;12.776;2023-08-24T02:36:36;100904.00;;;17.30;78.61
31092;BME280;67728;53.122;12.776;2023-08-24T02:38:09;100909.38;;;17.27;78.88
31092;BME280;67728;53.122;12.776;2023-08-24T02:39:39;100905.84;;;17.28;78.86
31092;BME280;67728;53.122;12.776;2023-08-24T02:41:11;100907.69;;;17.26;79.08
31092;BME280;67728;53.122;12.776;2023-08-24T02:42:44;100907.69;;;17.26;80.32
31092;BME280;67728;53.122;12.776;2023-08-24T02:44:16;100907.88;;;17.22;79.27
31092;BME280;67728;53.122;12.776;2023-08-24T02:45:48;100910.41;;;17.23;79.22
31092;BME280;67728;53.122;12.776;2023-08-24T02:47:18;100914.75;;;17.24;79.05
31092;BME280;67728;53.122;12.776;2023-08-24T02:48:50;100915.47;;;17.28;82.05
31092;BME280;67728;53.122;12.776;2023-08-24T02:50:20;100921.25;;;17.36;82.02
31092;BME280;67728;53.122;12.776;2023-08-24T02:51:52;100918.75;;;17.33;81.94
31092;BME280;67728;53.122;12.776;2023-08-24T02:53:23;100925.09;;;17.27;82.20
31092;BME280;67728;53.122;12.776;2023-08-24T02:54:54;100926.03;;;17.26;82.38
31092;BME280;67728;53.122;12.776;2023-08-24T02:56:26;100924.63;;;17.18;81.74
31092;BME280;67728;53.122;12.776;2023-08-24T02:57:57;100921.13;;;17.17;83.15
31092;BME280;67728;53.122;12.776;2023-08-24T02:59:30;100924.81;;;17.13;83.90
31092;BME280;67728;53.122;12.776;2023-08-24T03:01:04;100920.88;;;17.02;83.59
31092;BME280;67728;53.122;12.776;2023-08-24T03:02:36;100921.88;;;16.99;84.81
31092;BME280;67728;53.122;12.776;2023-08-24T03:04:07;100919.00;;;17.05;84.58
31092;BME280;67728;53.122;12.776;2023-08-24T03:05:39;100924.75;;;17.15;85.07
31092;BME280;67728;53.122;12.776;2023-08-24T03:07:10;100917.63;;;17.18;85.68
31092;BME280;67728;53.122;12.776;2023-08-24T03:08:42;100912.56;;;17.14;86.02
31092;BME280;67728;53.122;12.776;2023-08-24T03:10:13;100911.81;;;17.10;85.07
31092;BME280;67728;53.122;12.776;2023-08-24T03:11:44;100922.53;;;17.04;86.24
31092;BME280;67728;53.122;12.776;2023-08-24T03:13:16;100917.59;;;16.97;84.48
31092;BME280;67728;53.122;12.776;2023-08-24T03:14:51;100919.34;;;16.96;84.79
31092;BME280;67728;53.122;12.776;2023-08-24T03:16:22;100916.00;;;16.93;83.08
31092;BME280;67728;53.122;12.776;2023-08-24T03:17:53;100915.00;;;16.95;83.68
31092;BME280;67728;53.122;12.776;2023-08-24T03:19:25;100924.38;;;17.02;83.68
31092;BME280;67728;53.122;12.776;2023-08-24T03:20:55;100925.34;;;17.00;84.11
31092;BME280;67728;53.122;12.776;2023-08-24T03:22:27;100922.03;;;16.95;85.12
31092;BME280;67728;53.122;12.776;2023-08-24T03:23:59;100922.16;;;16.92;83.41
31092;BME280;67728;53.122;12.776;2023-08-24T03:25:31;100916.97;;;16.90;83.36
31092;BME280;67728;53.122;12.776;2023-08-24T03:27:02;100919.69;;;16.87;82.87
31092;BME280;67728;53.122;12.776;2023-08-24T03:28:34;100921.50;;;16.87;84.43
31092;BME280;67728;53.122;12.776;2023-08-24T03:30:07;100920.78;;;16.82;85.45
31092;BME280;67728;53.122;12.776;2023-08-24T03:31:39;100923.34;;;16.83;84.81
31092;BME280;67728;53.122;12.776;2023-08-24T03:33:10;100926.84;;;16.84;84.73
31092;BME280;67728;53.122;12.776;2023-08-24T03:34:41;100918.03;;;16.85;86.08
31092;BME280;67728;53.122;12.776;2023-08-24T03:36:12;100905.25;;;16.77;87.88
31092;BME280;67728;53.122;12.776;2023-08-24T03:37:43;100917.34;;;16.81;88.12
31092;BME280;67728;53.122;12.776;2023-08-24T03:39:15;100909.59;;;16.78;87.70
31092;BME280;67728;53.122;12.776;2023-08-24T03:40:46;100906.00;;;16.81;88.03
31092;BME280;67728;53.122;12.776;2023-08-24T03:42:17;100911.38;;;16.76;87.61
31092;BME280;67728;53.122;12.776;2023-08-24T03:43:48;100905.13;;;16.80;84.43
31092;BME280;67728;53.122;12.776;2023-08-24T03:45:22;100915.38;;;16.86;83.78
31092;BME280;67728;53.122;12.776;2023-08-24T03:46:54;100906.38;;;16.93;82.95
31092;BME280;67728;53.122;12.776;2023-08-24T03:48:24;100911.59;;;16.93;85.31
31092;BME280;67728;53.122;12.776;2023-08-24T03:49:56;100905.03;;;16.83;85.29
31092;BME280;67728;53.122;12.776;2023-08-24T03:51:27;100909.50;;;16.80;86.44
31092;BME280;67728;53.122;12.776;2023-08-24T03:52:59;100911.03;;;16.85;85.71
31092;BME280;67728;53.122;12.776;2023-08-24T03:54:30;100905.06;;;16.82;84.42
31092;BME280;67728;53.122;12.776;2023-08-24T03:56:01;100911.16;;;16.82;85.40
31092;BME280;67728;53.122;12.776;2023-08-24T03:57:32;100905.91;;;16.82;87.08
31092;BME280;67728;53.122;12.776;2023-08-24T03:59:04;100906.75;;;16.84;87.16
31092;BME280;67728;53.122;12.776;2023-08-24T04:00:39;100903.16;;;16.87;87.69
31092;BME280;67728;53.122;12.776;2023-08-24T04:02:09;100904.72;;;16.91;87.70
31092;BME280;67728;53.122;12.776;2023-08-24T04:03:41;100906.00;;;16.81;86.50
31092;BME280;67728;53.122;12.776;2023-08-24T04:05:11;100895.50;;;16.81;86.78
31092;BME280;67728;53.122;12.776;2023-08-24T04:06:43;100901.63;;;16.81;87.26
31092;BME280;67728;53.122;12.776;2023-08-24T04:08:14;100902.59;;;16.79;86.09
31092;BME280;67728;53.122;12.776;2023-08-24T04:09:45;100908.53;;;16.82;85.18
31092;BME280;67728;53.122;12.776;2023-08-24T04:11:16;100900.53;;;16.87;84.93
31092;BME280;67728;53.122;12.776;2023-08-24T04:12:47;100904.91;;;16.86;84.53
31092;BME280;67728;53.122;12.776;2023-08-24T04:14:18;100911.00;;;16.87;83.79
31092;BME280;67728;53.122;12.776;2023-08-24T04:15:51;100901.25;;;16.90;83.52
31092;BME280;67728;53.122;12.776;2023-08-24T04:17:22;100907.22;;;16.94;83.25
31092;BME280;67728;53.122;12.776;2023-08-24T04:18:53;100906.38;;;16.93;83.11
31092;BME280;67728;53.122;12.776;2023-08-24T04:20:24;100907.16;;;16.95;83.73
31092;BME280;67728;53.122;12.776;2023-08-24T04:21:55;100906.25;;;16.96;84.20
31092;BME280;67728;53.122;12.776;2023-08-24T04:23:26;100913.94;;;17.01;85.15
31092;BME280;67728;53.122;12.776;2023-08-24T04:24:58;100911.97;;;17.06;85.34
31092;BME280;67728;53.122;12.776;2023-08-24T04:26:29;100902.63;;;17.00;85.74
31092;BME280;67728;53.122;12.776;2023-08-24T04:28:00;100912.41;;;16.95;84.71
31092;BME280;67728;53.122;12.776;2023-08-24T04:29:32;100905.28;;;16.99;84.89
31092;BME280;67728;53.122;12.776;2023-08-24T04:31:04;100900.56;;;17.08;85.29
31092;BME280;67728;53.122;12.776;2023-08-24T04:32:35;100900.78;;;17.02;86.91
31092;BME280;67728;53.122;12.776;2023-08-24T04:34:06;100900.72;;;17.04;87.26
31092;BME280;67728;53.122;12.776;2023-08-24T04:35:38;100901.38;;;17.09;86.19
31092;BME280;67728;53.122;12.776;2023-08-24T04:37:08;100902.19;;;17.11;85.55
31092;BME280;67728;53.122;12.776;2023-08-24T04:38:40;100897.94;;;17.08;87.04
31092;BME280;67728;53.122;12.776;2023-08-24T04:40:12;100899.50;;;17.12;85.75
31092;BME280;67728;53.122;12.776;2023-08-24T04:41:42;100900.16;;;17.17;85.08
31092;BME280;67728;53.122;12.776;2023-08-24T04:43:14;100895.72;;;17.19;84.57
31092;BME280;67728;53.122;12.776;2023-08-24T04:44:44;100897.53;;;17.17;82.83
31092;BME280;67728;53.122;12.776;2023-08-24T04:46:17;100897.44;;;17.20;82.41
31092;BME280;67728;53.122;12.776;2023-08-24T04:47:48;100902.56;;;17.23;82.78
31092;BME280;67728;53.122;12.776;2023-08-24T04:49:20;100895.66;;;17.21;82.90
31092;BME280;67728;53.122;12.776;2023-08-24T04:50:50;100907.00;;;17.21;83.30
31092;BME280;67728;53.122;12.776;2023-08-24T04:52:23;100901.78;;;17.21;82.79
31092;BME280;67728;53.122;12.776;2023-08-24T04:53:53;100906.19;;;17.19;85.04
31092;BME280;67728;53.122;12.776;2023-08-24T04:55:25;100907.00;;;17.21;85.57
31092;BME280;67728;53.122;12.776;2023-08-24T04:56:55;100900.16;;;17.17;85.74
31092;BME280;67728;53.122;12.776;2023-08-24T04:58:27;100900.91;;;17.21;85.55
31092;BME280;67728;53.122;12.776;2023-08-24T04:59:58;100904.50;;;17.18;84.08
31092;BME280;67728;53.122;12.776;2023-08-24T05:01:31;100906.56;;;17.10;83.91
31092;BME280;67728;53.122;12.776;2023-08-24T05:03:02;100900.25;;;17.16;83.59
31092;BME280;67728;53.122;12.776;2023-08-24T05:04:33;100911.50;;;17.18;86.47
31092;BME280;67728;53.122;12.776;2023-08-24T05:06:04;100909.78;;;17.17;86.31
31092;BME280;67728;53.122;12.776;2023-08-24T05:07:37;100906.50;;;17.12;85.86
31092;BME280;67728;53.122;12.776;2023-08-24T05:09:08;100911.75;;;17.12;85.64
31092;BME280;67728;53.122;12.776;2023-08-24T05:10:40;100915.41;;;17.08;84.57
31092;BME280;67728;53.122;12.776;2023-08-24T05:12:11;100914.25;;;17.15;85.73
31092;BME280;67728;53.122;12.776;2023-08-24T05:13:43;100903.84;;;17.13;85.84
31092;BME280;67728;53.122;12.776;2023-08-24T05:15:13;100910.19;;;17.08;86.26
31092;BME280;67728;53.122;12.776;2023-08-24T05:16:46;100906.69;;;17.07;86.71
31092;BME280;67728;53.122;12.776;2023-08-24T05:18:17;100902.97;;;17.13;86.07
31092;BME280;67728;53.122;12.776;2023-08-24T05:19:50;100911.94;;;17.07;86.94
31092;BME280;67728;53.122;12.776;2023-08-24T05:21:21;100914.56;;;17.07;88.01
31092;BME280;67728;53.122;12.776;2023-08-24T05:22:53;100911.25;;;17.02;87.80
31092;BME280;67728;53.122;12.776;2023-08-24T05:24:25;100921.88;;;16.99;87.88
31092;BME280;67728;53.122;12.776;2023-08-24T05:25:56;100916.53;;;17.01;88.43
31092;BME280;67728;53.122;12.776;2023-08-24T05:27:27;100921.75;;;17.02;88.60
31092;BME280;67728;53.122;12.776;2023-08-24T05:28:59;100919.69;;;17.10;88.98
31092;BME280;67728;53.122;12.776;2023-08-24T05:30:30;100914.31;;;17.13;88.14
31092;BME280;67728;53.122;12.776;2023-08-24T05:32:03;100917.44;;;17.23;87.70
31092;BME280;67728;53.122;12.776;2023-08-24T05:33:33;100917.22;;;17.27;87.60
31092;BME280;67728;53.122;12.776;2023-08-24T05:35:06;100916.34;;;17.28;87.59
31092;BME280;67728;53.122;12.776;2023-08-24T05:36:37;100918.09;;;17.28;87.98
31092;BME280;67728;53.122;12.776;2023-08-24T05:38:08;100925.91;;;17.29;88.17
31092;BME280;67728;53.122;12.776;2023-08-24T05:39:39;100924.97;;;17.30;88.48
31092;BME280;67728;53.122;12.776;2023-08-24T05:41:11;100928.41;;;17.32;87.59
31092;BME280;67728;53.122;12.776;2023-08-24T05:42:41;100929.94;;;17.38;87.86
31092;BME280;67728;53.122;12.776;2023-08-24T05:44:13;100927.91;;;17.45;86.73
31092;BME280;67728;53.122;12.776;2023-08-24T05:45:45;100914.56;;;17.51;87.82
31092;BME280;67728;53.122;12.776;2023-08-24T05:47:18;100916.31;;;17.50;88.18
31092;BME280;67728;53.122;12.776;2023-08-24T05:48:49;100904.06;;;17.51;86.28
31092;BME280;67728;53.122;12.776;2023-08-24T05:50:21;100917.97;;;17.53;86.34
31092;BME280;67728;53.122;12.776;2023-08-24T05:51:52;100914.41;;;17.55;87.38
31092;BME280;67728;53.122;12.776;2023-08-24T05:53:24;100910.91;;;17.55;86.60
31092;BME280;67728;53.122;12.776;2023-08-24T05:54:55;100915.34;;;17.53;86.37
31092;BME280;67728;53.122;12.776;2023-08-24T05:56:27;100911.78;;;17.55;86.04
31092;BME280;67728;53.122;12.776;2023-08-24T05:57:58;100916.00;;;17.59;86.00
31092;BME280;67728;53.122;12.776;2023-08-24T05:59:29;100919.47;;;17.60;86.13
31092;BME280;67728;53.122;12.776;2023-08-24T06:01:00;100915.78;;;17.64;86.52
31092;BME280;67728;53.122;12.776;2023-08-24T06:02:33;100920.72;;;17.71;86.17
31092;BME280;67728;53.122;12.776;2023-08-24T06:04:04;100920.38;;;17.79;85.67
31092;BME280;67728;53.122;12.776;2023-08-24T06:05:36;100921.00;;;17.85;84.32
31092;BME280;67728;53.122;12.776;2023-08-24T06:07:08;100917.06;;;17.96;84.17
31092;BME280;67728;53.122;12.776;2023-08-24T06:08:40;100921.16;;;18.03;83.03
31092;BME280;67728;53.122;12.776;2023-08-24T06:10:12;100928.44;;;18.16;82.17
31092;BME280;67728;53.122;12.776;2023-08-24T06:11:42;100927.97;;;18.27;81.60
31092;BME280;67728;53.122;12.776;2023-08-24T06:13:14;100927.53;;;18.36;81.42
31092;BME280;67728;53.122;12.776;2023-08-24T06:14:45;100922.75;;;18.45;80.92
31092;BME280;67728;53.122;12.776;2023-08-24T06:16:16;100918.78;;;18.57;81.02
31092;BME280;67728;53.122;12.776;2023-08-24T06:17:48;100920.25;;;18.63;80.61
31092;BME280;67728;53.122;12.776;2023-08-24T06:19:21;100924.19;;;18.73;78.89
31092;BME280;67728;53.122;12.776;2023-08-24T06:20:51;100928.84;;;18.85;79.13
31092;BME280;67728;53.122;12.776;2023-08-24T06:22:23;100925.03;;;18.92;78.74
31092;BME280;67728;53.122;12.776;2023-08-24T06:23:53;100932.63;;;18.98;78.50
31092;BME280;67728;53.122;12.776;2023-08-24T06:25:25;100926.31;;;19.02;81.53
31092;BME280;67728;53.122;12.776;2023-08-24T06:26:56;100929.94;;;18.99;79.52
31092;BME280;67728;53.122;12.776;2023-08-24T06:28:27;100933.19;;;19.04;80.30
31092;BME280;67728;53.122;12.776;2023-08-24T06:29:58;100922.31;;;19.12;80.61
31092;BME280;67728;53.122;12.776;2023-08-24T06:31:30;100929.16;;;19.16;78.25
31092;BME280;67728;53.122;12.776;2023-08-24T06:33:03;100927.91;;;19.23;78.86
31092;BME280;67728;53.122;12.776;2023-08-24T06:34:34;100915.41;;;19.28;78.87
31092;BME280;67728;53.122;12.776;2023-08-24T06:36:06;100913.41;;;19.33;77.73
31092;BME280;67728;53.122;12.776;2023-08-24T06:37:38;100918.50;;;19.38;78.35
31092;BME280;67728;53.122;12.776;2023-08-24T06:39:09;100911.94;;;19.46;77.98
31092;BME280;67728;53.122;12.776;2023-08-24T06:40:40;100912.59;;;19.50;78.36
31092;BME280;67728;53.122;12.776;2023-08-24T06:42:11;100913.09;;;19.58;77.46
31092;BME280;67728;53.122;12.776;2023-08-24T06:43:42;100912.41;;;19.72;76.07
31092;BME280;67728;53.122;12.776;2023-08-24T06:45:14;100908.31;;;19.83;74.99
31092;BME280;67728;53.122;12.776;2023-08-24T06:46:44;100914.75;;;19.95;74.29
31092;BME280;67728;53.122;12.776;2023-08-24T06:48:18;100913.59;;;20.00;74.53
31092;BME280;67728;53.122;12.776;2023-08-24T06:49:50;100918.50;;;20.06;73.52
31092;BME280;67728;53.122;12.776;2023-08-24T06:51:21;100919.94;;;20.13;74.18
31092;BME280;67728;53.122;12.776;2023-08-24T06:52:52;100924.25;;;20.14;72.96
31092;BME280;67728;53.122;12.776;2023-08-24T06:54:23;100924.25;;;20.14;73.21
31092;BME280;67728;53.122;12.776;2023-08-24T06:55:55;100932.22;;;20.13;73.46
31092;BME280;67728;53.122;12.776;2023-08-24T06:57:26;100923.56;;;20.11;73.56
31092;BME280;67728;53.122;12.776;2023-08-24T06:59:00;100933.09;;;20.13;73.52
31092;BME280;67728;53.122;12.776;2023-08-24T07:00:32;100912.63;;;20.18;73.36
31092;BME280;67728;53.122;12.776;2023-08-24T07:02:04;100918.75;;;20.19;75.63
31092;BME280;67728;53.122;12.776;2023-08-24T07:03:37;100932.09;;;20.16;76.66
31092;BME280;67728;53.122;12.776;2023-08-24T07:05:08;100938.97;;;20.18;75.93
31092;BME280;67728;53.122;12.776;2023-08-24T07:06:40;100933.56;;;20.21;75.98
31092;BME280;67728;53.122;12.776;2023-08-24T07:08:12;100932.31;;;20.28;76.57
31092;BME280;67728;53.122;12.776;2023-08-24T07:09:44;100924.16;;;20.33;75.35
31092;BME280;67728;53.122;12.776;2023-08-24T07:11:14;100934.56;;;20.36;74.91
31092;BME280;67728;53.122;12.776;2023-08-24T07:12:47;100930.06;;;20.38;75.00
31092;BME280;67728;53.122;12.776;2023-08-24T07:14:18;100929.97;;;20.40;76.08
31092;BME280;67728;53.122;12.776;2023-08-24T07:15:49;100926.50;;;20.39;75.55
31092;BME280;67728;53.122;12.776;2023-08-24T07:17:21;100927.44;;;20.38;74.84
31092;BME280;67728;53.122;12.776;2023-08-24T07:18:54;100933.53;;;20.39;75.75
31092;BME280;67728;53.122;12.776;2023-08-24T07:20:24;100937.28;;;20.35;74.56
31092;BME280;67728;53.122;12.776;2023-08-24T07:21:56;100925.97;;;20.33;75.21
31092;BME280;67728;53.122;12.776;2023-08-24T07:23:27;100937.28;;;20.35;74.54
31092;BME280;67728;53.122;12.776;2023-08-24T07:25:00;100941.69;;;20.34;75.80
31092;BME280;67728;53.122;12.776;2023-08-24T07:26:30;100941.63;;;20.36;75.54
31092;BME280;67728;53.122;12.776;2023-08-24T07:28:03;100939.53;;;20.25;75.64
31092;BME280;67728;53.122;12.776;2023-08-24T07:29:35;100950.06;;;20.25;74.43
31092;BME280;67728;53.122;12.776;2023-08-24T07:31:09;100943.56;;;20.32;76.13
31092;BME280;67728;53.122;12.776;2023-08-24T07:32:41;100945.69;;;20.41;77.02
31092;BME280;67728;53.122;12.776;2023-08-24T07:34:13;100942.59;;;20.50;76.83
31092;BME280;67728;53.122;12.776;2023-08-24T07:35:45;100940.66;;;20.54;75.61
31092;BME280;67728;53.122;12.776;2023-08-24T07:37:16;100925.84;;;20.51;74.59
31092;BME280;67728;53.122;12.776;2023-08-24T07:38:48;100928.50;;;20.51;73.50
31092;BME280;67728;53.122;12.776;2023-08-24T07:40:19;100924.44;;;20.61;75.33
31092;BME280;67728;53.122;12.776;2023-08-24T07:41:50;100916.78;;;20.72;75.44
31092;BME280;67728;53.122;12.776;2023-08-24T07:43:21;100919.00;;;20.80;74.71
31092;BME280;67728;53.122;12.776;2023-08-24T07:44:52;100915.44;;;20.81;73.33
31092;BME280;67728;53.122;12.776;2023-08-24T07:46:24;100908.88;;;20.72;73.48
31092;BME280;67728;53.122;12.776;2023-08-24T07:47:56;100915.25;;;20.68;72.51
31092;BME280;67728;53.122;12.776;2023-08-24T07:49:28;100910.50;;;20.75;72.50
31092;BME280;67728;53.122;12.776;2023-08-24T07:51:00;100911.97;;;20.80;73.32
31092;BME280;67728;53.122;12.776;2023-08-24T07:52:30;100913.25;;;20.89;73.77
31092;BME280;67728;53.122;12.776;2023-08-24T07:54:02;100916.81;;;21.04;73.49